Time;durP1;ratioP1;P1;durP2;ratioP2;P2;SDS_P1;SDS_P2;PMS_P1;PMS_P2;Temp;Humidity;BMP_temperature;BMP_pressure;BME280_temperature;BME280_humidity;BME280_pressure;Samples;Min_cycle;Max_cycle;Signal;HPM_P1;HPM_P2
2021/05/14 00:01:53;;;;;;;0.70;0.70;;;10.00;99.90;;;;;;5023199;28;20178;-78
2021/05/14 00:04:19;;;;;;;1.90;0.70;;;10.00;99.90;;;;;;5019092;28;20946;-82
2021/05/14 00:06:49;;;;;;;2.10;0.77;;;10.00;99.90;;;;;;5017096;28;20432;-82
2021/05/14 00:09:16;;;;;;;0.63;0.63;;;10.00;99.90;;;;;;5040217;28;20480;-80
2021/05/14 00:11:42;;;;;;;0.80;0.70;;;10.00;99.90;;;;;;5040122;28;20489;-79
2021/05/14 00:14:08;;;;;;;1.87;0.60;;;10.00;99.90;;;;;;5039466;28;20436;-82
2021/05/14 00:16:34;;;;;;;0.90;0.90;;;10.00;99.90;;;;;;5038338;28;21022;-81
2021/05/14 00:19:00;;;;;;;1.23;0.90;;;10.00;99.90;;;;;;5034805;28;20431;-82
2021/05/14 00:21:32;;;;;;;1.00;0.77;;;10.00;99.90;;;;;;5020381;28;20413;-79
2021/05/14 00:23:58;;;;;;;0.73;0.70;;;10.00;99.90;;;;;;5019940;28;20193;-80
2021/05/14 00:26:23;;;;;;;0.93;0.60;;;9.90;99.90;;;;;;5020205;28;20422;-80
2021/05/14 00:28:49;;;;;;;4.30;0.70;;;9.90;99.90;;;;;;5002942;28;20464;-79
2021/05/14 00:31:15;;;;;;;0.70;0.60;;;9.90;99.90;;;;;;5027763;28;20177;-80
2021/05/14 00:33:41;;;;;;;0.70;0.70;;;9.90;99.90;;;;;;5037663;28;20241;-79
2021/05/14 00:36:07;;;;;;;0.80;0.80;;;9.80;99.90;;;;;;5019989;28;20563;-82
2021/05/14 00:38:32;;;;;;;0.90;0.57;;;9.80;99.90;;;;;;5002173;28;20179;-80
2021/05/14 00:40:58;;;;;;;0.97;0.70;;;9.80;99.90;;;;;;5033043;28;20660;-79
2021/05/14 00:43:24;;;;;;;3.03;0.70;;;9.80;99.90;;;;;;5019278;28;20203;-79
2021/05/14 00:45:49;;;;;;;3.33;0.70;;;9.80;99.90;;;;;;5002166;28;20193;-81
2021/05/14 00:48:15;;;;;;;1.30;0.70;;;9.80;99.90;;;;;;5020249;28;20168;-79
2021/05/14 00:50:41;;;;;;;5.03;0.80;;;9.80;99.90;;;;;;5036836;28;20180;-79
2021/05/14 00:53:06;;;;;;;1.90;0.80;;;9.90;99.90;;;;;;5039688;28;20604;-79
2021/05/14 00:55:32;;;;;;;1.40;0.80;;;10.00;99.90;;;;;;5039019;28;20197;-79
2021/05/14 00:57:58;;;;;;;2.50;0.70;;;10.00;99.90;;;;;;5039822;28;20237;-79
2021/05/14 01:00:23;;;;;;;0.60;0.60;;;10.00;99.90;;;;;;5019359;28;20181;-79
2021/05/14 01:02:51;;;;;;;1.13;0.60;;;10.00;99.90;;;;;;5019047;28;20285;-79
2021/05/14 01:05:19;;;;;;;0.73;0.60;;;10.00;99.90;;;;;;5031449;28;20201;-79
2021/05/14 01:07:45;;;;;;;0.80;0.80;;;10.00;99.90;;;;;;5038805;28;20420;-82
2021/05/14 01:10:10;;;;;;;1.20;0.80;;;10.10;99.90;;;;;;5038942;28;20469;-79
2021/05/14 01:12:36;;;;;;;1.50;0.70;;;10.10;99.90;;;;;;5045214;28;20192;-77
2021/05/14 01:15:02;;;;;;;0.70;0.70;;;10.20;99.90;;;;;;5033446;28;20478;-79
2021/05/14 01:17:30;;;;;;;1.20;0.70;;;10.20;99.90;;;;;;5038152;28;20212;-79
2021/05/14 01:19:56;;;;;;;1.43;0.60;;;10.20;99.90;;;;;;5028390;28;20432;-79
2021/05/14 01:22:22;;;;;;;1.17;0.70;;;10.20;99.90;;;;;;5017714;28;20906;-81
2021/05/14 01:24:47;;;;;;;1.10;0.57;;;10.20;99.90;;;;;;5007018;28;20200;-82
2021/05/14 01:27:13;;;;;;;1.07;0.60;;;10.10;99.90;;;;;;5037687;28;20189;-79
2021/05/14 01:29:38;;;;;;;0.60;0.60;;;10.10;99.90;;;;;;5014895;28;20208;-79
2021/05/14 01:32:04;;;;;;;0.83;0.83;;;10.10;99.90;;;;;;5016278;28;20647;-79
2021/05/14 01:34:30;;;;;;;0.63;0.60;;;10.00;99.90;;;;;;5012189;28;20298;-77
2021/05/14 01:36:55;;;;;;;1.47;0.70;;;10.00;99.90;;;;;;5012303;28;20457;-77
2021/05/14 01:39:24;;;;;;;0.77;0.50;;;10.00;99.90;;;;;;4994384;28;20177;-78
2021/05/14 01:41:51;;;;;;;3.83;0.90;;;9.90;99.90;;;;;;5012340;28;20177;-77
2021/05/14 01:44:17;;;;;;;1.00;0.60;;;9.90;99.90;;;;;;5012117;28;20544;-78
2021/05/14 01:46:42;;;;;;;1.67;0.80;;;9.80;99.90;;;;;;5031442;28;20786;-77
2021/05/14 01:49:08;;;;;;;2.40;0.60;;;9.80;99.90;;;;;;5031796;28;20185;-77
2021/05/14 01:51:34;;;;;;;0.50;0.50;;;9.80;99.90;;;;;;5021073;28;20818;-78
2021/05/14 01:53:59;;;;;;;0.90;0.50;;;9.70;99.90;;;;;;4993755;28;20205;-80
2021/05/14 01:56:25;;;;;;;0.50;0.50;;;9.70;99.90;;;;;;5011977;28;20206;-78
2021/05/14 01:58:51;;;;;;;0.63;0.63;;;9.60;99.90;;;;;;5012724;28;20186;-77
2021/05/14 02:01:18;;;;;;;0.60;0.50;;;9.60;99.90;;;;;;5020023;28;20241;-77
2021/05/14 02:03:44;;;;;;;0.70;0.60;;;9.50;99.90;;;;;;5031663;28;20408;-77
2021/05/14 02:06:09;;;;;;;0.60;0.60;;;9.50;99.90;;;;;;5012168;28;20426;-78
2021/05/14 02:08:35;;;;;;;0.53;0.50;;;9.40;99.90;;;;;;5011765;28;20551;-78
2021/05/14 02:11:03;;;;;;;4.63;0.80;;;9.40;99.90;;;;;;5024897;28;20185;-78
2021/05/14 02:13:28;;;;;;;4.73;0.63;;;9.30;99.90;;;;;;5012396;28;20428;-78
2021/05/14 02:15:54;;;;;;;3.40;0.70;;;9.20;99.90;;;;;;5012383;28;20456;-77
2021/05/14 02:18:20;;;;;;;0.83;0.83;;;9.10;99.90;;;;;;4994014;28;20183;-77
2021/05/14 02:20:46;;;;;;;1.10;0.60;;;9.10;99.90;;;;;;5026312;28;20320;-78
2021/05/14 02:23:11;;;;;;;2.80;0.70;;;9.00;99.90;;;;;;5014063;28;20187;-80
2021/05/14 02:25:37;;;;;;;0.63;0.57;;;9.00;99.90;;;;;;5030965;28;20571;-78
2021/05/14 02:28:03;;;;;;;4.20;0.60;;;8.90;99.90;;;;;;5030898;28;20173;-79
2021/05/14 02:30:29;;;;;;;0.70;0.70;;;8.80;99.90;;;;;;5016691;28;20190;-77
2021/05/14 02:32:55;;;;;;;1.47;0.70;;;8.80;99.90;;;;;;5010257;28;20470;-78
2021/05/14 02:35:20;;;;;;;0.90;0.80;;;8.70;99.90;;;;;;5021981;28;20908;-79
2021/05/14 02:37:46;;;;;;;1.17;0.70;;;8.60;99.90;;;;;;5029912;28;20286;-80
2021/05/14 02:40:13;;;;;;;3.83;0.80;;;8.60;99.90;;;;;;5019454;28;20659;-81
2021/05/14 02:42:38;;;;;;;1.90;0.60;;;8.50;99.90;;;;;;5009990;28;20480;-79
2021/05/14 02:45:06;;;;;;;0.87;0.70;;;8.50;99.90;;;;;;5020010;28;20451;-78
2021/05/14 02:47:32;;;;;;;2.73;0.70;;;8.40;99.90;;;;;;5013661;28;20246;-79
2021/05/14 02:49:57;;;;;;;1.47;0.70;;;8.40;99.90;;;;;;5020772;28;20847;-78
2021/05/14 02:52:23;;;;;;;2.00;0.70;;;8.40;99.90;;;;;;5013584;28;20906;-80
2021/05/14 02:54:48;;;;;;;0.97;0.90;;;8.40;99.90;;;;;;5023966;28;20728;-78
2021/05/14 02:57:14;;;;;;;1.43;0.90;;;8.30;99.90;;;;;;5012564;28;20669;-78
2021/05/14 02:59:39;;;;;;;0.70;0.70;;;8.30;99.90;;;;;;5015242;28;20238;-78
2021/05/14 03:02:07;;;;;;;1.07;0.97;;;8.40;99.90;;;;;;5015819;28;20200;-77
2021/05/14 03:04:32;;;;;;;0.90;0.90;;;8.30;99.90;;;;;;5014756;28;20280;-78
2021/05/14 03:06:58;;;;;;;1.03;0.90;;;8.30;99.90;;;;;;4998099;28;20544;-80
2021/05/14 03:09:23;;;;;;;0.97;0.80;;;8.30;99.90;;;;;;5034676;28;20173;-78
2021/05/14 03:11:49;;;;;;;0.80;0.80;;;8.30;99.90;;;;;;5023272;28;20189;-78
2021/05/14 03:14:15;;;;;;;1.43;0.87;;;8.30;99.90;;;;;;5014520;28;20203;-78
2021/05/14 03:16:40;;;;;;;0.87;0.87;;;8.20;99.90;;;;;;5023774;28;20251;-78
2021/05/14 03:19:06;;;;;;;3.20;0.87;;;8.20;99.90;;;;;;5031552;28;20237;-77
2021/05/14 03:21:31;;;;;;;3.90;1.00;;;8.10;99.90;;;;;;5014649;28;20721;-78
2021/05/14 03:23:58;;;;;;;1.20;0.90;;;8.10;99.90;;;;;;4997264;28;20627;-80
2021/05/14 03:26:24;;;;;;;0.93;0.93;;;8.00;99.90;;;;;;5014540;28;20194;-78
2021/05/14 03:28:49;;;;;;;1.00;0.90;;;8.00;99.90;;;;;;5014664;28;20416;-78
2021/05/14 03:31:15;;;;;;;2.03;1.10;;;7.90;99.90;;;;;;5007279;28;20182;-80
2021/05/14 03:33:41;;;;;;;1.50;0.73;;;7.80;99.90;;;;;;5015364;28;20204;-77
2021/05/14 03:36:06;;;;;;;1.10;1.10;;;7.80;99.90;;;;;;5015490;28;20232;-79
2021/05/14 03:38:33;;;;;;;1.37;1.00;;;7.80;99.90;;;;;;5013923;28;20180;-79
2021/05/14 03:41:04;;;;;;;2.30;0.97;;;7.70;99.90;;;;;;5027192;28;20177;-79
2021/05/14 03:43:31;;;;;;;1.70;0.70;;;7.70;99.90;;;;;;5013781;28;20435;-80
2021/05/14 03:45:57;;;;;;;2.60;0.93;;;7.70;99.90;;;;;;5032596;28;20455;-78
2021/05/14 03:48:23;;;;;;;2.40;1.07;;;7.70;99.90;;;;;;5033415;28;20449;-79
2021/05/14 03:50:51;;;;;;;2.30;0.97;;;7.60;99.90;;;;;;5028606;28;20539;-80
2021/05/14 03:53:18;;;;;;;1.93;1.00;;;7.60;99.90;;;;;;5013815;28;20179;-81
2021/05/14 03:55:44;;;;;;;0.83;0.83;;;7.60;99.90;;;;;;4996230;28;20444;-78
2021/05/14 03:58:09;;;;;;;2.67;1.40;;;7.50;99.90;;;;;;5019335;28;20414;-78
2021/05/14 04:00:35;;;;;;;4.00;0.83;;;7.50;99.90;;;;;;5030901;28;20651;-79
2021/05/14 04:03:01;;;;;;;1.40;1.30;;;7.50;99.90;;;;;;4995706;28;20268;-79
2021/05/14 04:05:27;;;;;;;2.00;1.27;;;7.40;99.90;;;;;;5015188;28;20461;-78
2021/05/14 04:07:54;;;;;;;2.30;1.00;;;7.40;99.90;;;;;;5033919;28;20415;-79
2021/05/14 04:10:31;;;;;;;1.77;1.20;;;7.40;99.90;;;;;;5033029;28;20181;-80
2021/05/14 04:15:41;;;;;;;5.37;1.27;;;7.40;99.90;;;;;;5028971;28;20453;-76
2021/05/14 04:18:07;;;;;;;1.37;1.10;;;7.40;99.90;;;;;;5012966;28;20424;-76
2021/05/14 04:20:32;;;;;;;2.43;1.20;;;7.40;99.90;;;;;;5013662;28;20511;-77
2021/05/14 04:22:58;;;;;;;2.17;1.20;;;7.40;99.90;;;;;;5032354;28;20195;-75
2021/05/14 04:25:23;;;;;;;1.80;0.87;;;7.40;99.90;;;;;;5016183;28;20206;-76
2021/05/14 04:27:49;;;;;;;2.10;0.90;;;7.40;99.90;;;;;;5012917;28;20194;-76
2021/05/14 04:30:15;;;;;;;1.20;1.10;;;7.30;99.90;;;;;;5008380;28;20227;-75
2021/05/14 04:32:41;;;;;;;1.00;0.90;;;7.40;99.90;;;;;;5032181;28;20198;-74
2021/05/14 04:35:07;;;;;;;1.10;1.00;;;7.40;99.90;;;;;;5001659;28;20472;-74
2021/05/14 04:37:32;;;;;;;1.20;1.10;;;7.40;99.90;;;;;;5012273;28;20622;-75
2021/05/14 04:39:58;;;;;;;1.07;1.07;;;7.40;99.90;;;;;;5023138;28;20439;-75
2021/05/14 04:42:23;;;;;;;1.30;1.27;;;7.40;99.90;;;;;;5014931;28;20185;-75
2021/05/14 04:44:49;;;;;;;1.40;1.20;;;7.50;99.90;;;;;;5020782;28;20266;-75
2021/05/14 04:47:14;;;;;;;1.23;1.13;;;7.50;99.90;;;;;;5031987;28;20181;-76
2021/05/14 04:49:40;;;;;;;1.27;1.17;;;7.60;99.90;;;;;;5029611;28;20186;-75
2021/05/14 04:52:21;;;;;;;1.77;1.50;;;7.60;99.90;;;;;;5032061;28;20181;-75
2021/05/14 04:54:47;;;;;;;1.20;1.10;;;7.70;99.90;;;;;;5021730;28;20202;-75
2021/05/14 04:57:13;;;;;;;1.27;0.80;;;7.80;99.90;;;;;;5012061;28;20459;-75
2021/05/14 04:59:40;;;;;;;1.80;1.20;;;7.90;99.90;;;;;;5002236;28;20437;-75
2021/05/14 05:02:06;;;;;;;3.87;1.10;;;8.00;99.90;;;;;;5016709;28;20459;-74
2021/05/14 05:04:36;;;;;;;1.53;1.03;;;8.20;99.90;;;;;;5018156;28;20454;-74
2021/05/14 05:07:03;;;;;;;1.53;1.20;;;8.40;99.90;;;;;;5031713;28;20509;-74
2021/05/14 05:09:29;;;;;;;1.03;0.90;;;8.60;99.90;;;;;;5029575;28;20440;-73
2021/05/14 05:11:54;;;;;;;0.93;0.93;;;8.70;99.90;;;;;;5031383;28;20517;-73
2021/05/14 05:14:20;;;;;;;1.23;0.90;;;9.00;99.90;;;;;;5023733;28;20697;-72
2021/05/14 05:16:45;;;;;;;1.23;1.10;;;10.30;99.90;;;;;;5011725;28;20210;-75
2021/05/14 05:19:11;;;;;;;1.43;1.07;;;13.20;99.90;;;;;;5017408;28;20261;-75
2021/05/14 05:21:36;;;;;;;1.50;0.77;;;16.00;99.90;;;;;;5029680;28;20193;-75
2021/05/14 05:24:02;;;;;;;1.27;1.17;;;18.10;99.90;;;;;;5027957;28;20718;-80
2021/05/14 05:26:28;;;;;;;4.97;0.93;;;20.00;99.90;;;;;;4994818;28;20222;-74
2021/05/14 05:28:53;;;;;;;1.87;1.77;;;20.60;99.90;;;;;;5020739;28;20428;-74
2021/05/14 05:31:19;;;;;;;0.80;0.70;;;21.70;99.90;;;;;;5029712;28;20204;-75
2021/05/14 05:33:44;;;;;;;1.63;0.70;;;22.40;99.90;;;;;;5031082;28;20661;-74
2021/05/14 05:36:10;;;;;;;0.90;0.60;;;22.90;99.90;;;;;;5029899;28;20240;-75
2021/05/14 05:38:36;;;;;;;1.03;0.60;;;23.00;99.90;;;;;;5013578;28;20268;-74
2021/05/14 05:41:02;;;;;;;2.20;0.60;;;23.40;99.90;;;;;;5025850;28;20312;-75
2021/05/14 05:43:28;;;;;;;2.30;0.60;;;23.60;99.90;;;;;;5011363;28;20950;-74
2021/05/14 05:45:53;;;;;;;2.93;0.70;;;24.20;99.90;;;;;;5017273;28;20189;-75
2021/05/14 05:48:19;;;;;;;1.13;0.70;;;23.90;99.90;;;;;;5031250;28;20185;-74
2021/05/14 05:50:44;;;;;;;1.63;0.70;;;24.20;99.90;;;;;;5029532;28;20364;-74
2021/05/14 05:53:11;;;;;;;1.63;0.70;;;23.60;99.90;;;;;;5013353;28;20763;-74
2021/05/14 05:55:36;;;;;;;0.60;0.60;;;23.00;99.90;;;;;;5029144;28;20222;-74
2021/05/14 05:58:10;;;;;;;0.70;0.60;;;22.10;99.90;;;;;;4993684;28;20820;-74
2021/05/14 06:00:36;;;;;;;1.40;0.70;;;21.20;99.90;;;;;;5011583;28;20270;-73
2021/05/14 06:03:03;;;;;;;1.17;0.63;;;20.70;99.90;;;;;;5012274;28;20429;-74
2021/05/14 06:05:29;;;;;;;2.13;0.70;;;20.00;99.90;;;;;;5013491;28;20818;-74
2021/05/14 06:07:55;;;;;;;3.70;0.80;;;20.00;99.90;;;;;;5011197;28;20417;-74
2021/05/14 06:10:20;;;;;;;0.50;0.50;;;19.60;99.90;;;;;;5012490;28;20429;-74
2021/05/14 06:12:46;;;;;;;1.57;0.60;;;19.10;99.90;;;;;;5011060;28;20331;-73
2021/05/14 06:15:12;;;;;;;0.50;0.50;;;19.20;99.90;;;;;;5022899;28;20295;-74
2021/05/14 06:17:42;;;;;;;0.60;0.50;;;19.10;99.90;;;;;;5030664;28;20205;-74
2021/05/14 06:20:11;;;;;;;2.40;1.00;;;19.10;99.90;;;;;;5029329;28;20901;-74
2021/05/14 06:22:37;;;;;;;0.80;0.50;;;18.90;99.90;;;;;;5030688;28;21221;-74
2021/05/14 06:25:04;;;;;;;0.50;0.50;;;18.50;99.90;;;;;;5020762;28;20437;-74
2021/05/14 06:27:30;;;;;;;0.63;0.50;;;18.40;99.90;;;;;;5014625;28;20543;-74
2021/05/14 06:29:55;;;;;;;2.27;0.60;;;18.40;99.90;;;;;;5023465;28;20420;-74
2021/05/14 06:32:21;;;;;;;0.83;0.70;;;18.50;99.90;;;;;;5016659;28;20190;-74
2021/05/14 06:34:46;;;;;;;1.87;0.50;;;18.70;99.90;;;;;;5033808;28;20221;-73
2021/05/14 06:37:12;;;;;;;1.33;0.50;;;18.50;99.90;;;;;;5034631;28;20725;-74
2021/05/14 06:39:37;;;;;;;3.50;0.60;;;18.20;99.90;;;;;;5030200;28;20190;-74
2021/05/14 06:42:03;;;;;;;1.80;0.60;;;18.30;99.90;;;;;;5014744;28;20182;-74
2021/05/14 06:44:29;;;;;;;3.13;0.80;;;18.70;99.90;;;;;;5016966;28;20198;-74
2021/05/14 06:46:55;;;;;;;0.50;0.40;;;19.10;99.90;;;;;;5034487;28;20533;-74
2021/05/14 06:49:22;;;;;;;1.37;0.50;;;19.40;99.90;;;;;;5032649;28;20557;-74
2021/05/14 06:51:48;;;;;;;6.43;1.47;;;19.40;99.90;;;;;;5014629;28;20252;-74
2021/05/14 06:54:13;;;;;;;1.23;0.60;;;19.00;99.90;;;;;;5014300;28;20464;-75
2021/05/14 06:56:39;;;;;;;0.60;0.50;;;19.30;99.90;;;;;;5016174;28;20531;-75
2021/05/14 06:59:04;;;;;;;1.13;0.53;;;19.40;99.90;;;;;;5034275;28;20588;-74
2021/05/14 07:01:30;;;;;;;3.00;0.50;;;19.60;99.90;;;;;;5021971;28;20587;-75
2021/05/14 07:03:55;;;;;;;0.70;0.50;;;19.50;99.90;;;;;;5019448;28;20191;-74
2021/05/14 07:06:21;;;;;;;0.87;0.60;;;19.50;99.90;;;;;;5016161;28;20548;-74
2021/05/14 07:08:48;;;;;;;0.90;0.50;;;19.60;99.90;;;;;;5020241;28;20178;-74
2021/05/14 07:11:14;;;;;;;1.00;0.90;;;19.60;99.90;;;;;;5030786;28;20178;-75
2021/05/14 07:13:39;;;;;;;0.60;0.50;;;19.90;99.90;;;;;;5014425;28;20829;-70
2021/05/14 07:16:05;;;;;;;1.27;0.60;;;19.90;99.90;;;;;;5018520;28;20181;-73
2021/05/14 07:18:32;;;;;;;2.60;0.50;;;19.70;99.90;;;;;;5033644;28;20178;-72
2021/05/14 07:20:57;;;;;;;0.70;0.50;;;20.10;99.90;;;;;;5015807;28;20186;-75
2021/05/14 07:23:23;;;;;;;1.87;0.50;;;20.00;99.90;;;;;;5013981;28;20402;-75
2021/05/14 07:25:49;;;;;;;4.13;0.50;;;20.40;99.90;;;;;;5021162;28;20262;-75
2021/05/14 07:28:14;;;;;;;0.50;0.40;;;20.80;99.90;;;;;;5033620;28;20177;-75
2021/05/14 07:30:40;;;;;;;0.70;0.50;;;20.70;99.90;;;;;;5015818;28;20292;-75
2021/05/14 07:33:05;;;;;;;0.50;0.40;;;20.60;99.90;;;;;;5033456;28;20169;-75
2021/05/14 07:35:31;;;;;;;1.60;0.80;;;20.10;99.90;;;;;;5033352;28;20236;-75
2021/05/14 07:37:56;;;;;;;0.50;0.50;;;19.90;99.90;;;;;;5032602;28;20272;-75
2021/05/14 07:40:22;;;;;;;6.57;0.70;;;19.90;99.90;;;;;;5033452;28;20181;-75
2021/05/14 07:42:48;;;;;;;1.50;0.43;;;20.40;99.90;;;;;;5033269;28;20166;-74
2021/05/14 07:45:13;;;;;;;0.77;0.50;;;20.70;99.90;;;;;;5015617;28;20305;-75
2021/05/14 07:47:39;;;;;;;0.90;0.50;;;21.00;99.90;;;;;;5033098;28;20655;-75
2021/05/14 07:50:06;;;;;;;1.47;0.53;;;20.50;99.90;;;;;;5033397;28;20254;-75
2021/05/14 07:52:31;;;;;;;0.50;0.50;;;20.10;99.90;;;;;;5015392;28;20264;-75
2021/05/14 07:54:57;;;;;;;2.20;0.73;;;19.80;99.90;;;;;;5033005;28;20520;-75
2021/05/14 07:57:22;;;;;;;0.50;0.50;;;18.90;99.90;;;;;;5033006;28;20202;-74
2021/05/14 07:59:48;;;;;;;0.80;0.50;;;18.60;99.90;;;;;;5033198;28;20209;-75
2021/05/14 08:02:14;;;;;;;0.73;0.60;;;18.40;99.90;;;;;;5015525;28;20170;-75
2021/05/14 08:04:39;;;;;;;3.03;0.60;;;18.30;99.90;;;;;;5032585;28;20192;-75
2021/05/14 08:07:05;;;;;;;0.50;0.50;;;18.20;99.90;;;;;;5033170;28;20231;-74
2021/05/14 08:09:30;;;;;;;1.67;0.50;;;17.60;99.90;;;;;;5032787;28;20189;-75
2021/05/14 08:11:56;;;;;;;0.50;0.50;;;17.30;99.90;;;;;;5033329;28;20644;-75
2021/05/14 08:14:22;;;;;;;2.97;0.90;;;17.40;99.90;;;;;;5032037;28;20206;-74
2021/05/14 08:16:48;;;;;;;8.33;0.60;;;17.70;99.90;;;;;;5020832;28;20301;-75
2021/05/14 08:19:14;;;;;;;0.50;0.47;;;17.50;99.90;;;;;;5028983;28;20422;-75
2021/05/14 08:21:41;;;;;;;1.53;0.40;;;17.50;99.90;;;;;;5021071;28;20523;-75
2021/05/14 08:24:07;;;;;;;1.57;0.60;;;17.30;99.90;;;;;;4998820;28;20202;-74
2021/05/14 08:26:33;;;;;;;1.07;0.50;;;16.90;99.90;;;;;;5039431;28;20423;-75
2021/05/14 08:28:59;;;;;;;0.67;0.47;;;16.80;99.90;;;;;;5030510;28;20594;-74
2021/05/14 08:31:24;;;;;;;0.60;0.50;;;16.80;99.90;;;;;;5030689;28;20189;-74
2021/05/14 08:33:50;;;;;;;1.10;0.60;;;16.80;99.90;;;;;;5031946;28;20196;-73
2021/05/14 08:36:15;;;;;;;0.60;0.40;;;16.90;99.90;;;;;;5023726;28;20210;-75
2021/05/14 08:38:41;;;;;;;0.70;0.50;;;18.00;99.90;;;;;;5031285;28;20190;-74
2021/05/14 08:41:07;;;;;;;1.63;0.40;;;19.40;99.90;;;;;;5035814;28;21135;-74
2021/05/14 08:43:33;;;;;;;1.53;0.40;;;20.10;99.90;;;;;;5045973;28;20610;-74
2021/05/14 08:46:01;;;;;;;1.83;0.40;;;20.20;99.90;;;;;;5030997;28;20437;-74
2021/05/14 08:48:30;;;;;;;1.70;0.63;;;20.10;99.90;;;;;;5027475;28;20186;-73
2021/05/14 08:50:55;;;;;;;0.60;0.40;;;19.90;99.90;;;;;;5034643;28;20833;-73
2021/05/14 08:53:21;;;;;;;0.90;0.50;;;19.50;99.90;;;;;;5028393;28;20444;-73
2021/05/14 08:55:47;;;;;;;1.63;0.47;;;18.90;99.90;;;;;;5025362;28;20272;-73
2021/05/14 08:58:12;;;;;;;1.27;0.50;;;19.50;99.90;;;;;;5037412;28;20587;-74
2021/05/14 09:00:39;;;;;;;0.50;0.40;;;20.10;99.90;;;;;;5028414;28;20277;-73
2021/05/14 09:03:09;;;;;;;1.23;0.50;;;20.10;99.90;;;;;;5043209;28;20232;-74
2021/05/14 09:05:35;;;;;;;1.00;0.43;;;20.00;99.90;;;;;;5030682;28;20570;-74
2021/05/14 09:08:02;;;;;;;2.57;0.40;;;19.50;99.90;;;;;;5024472;28;20416;-75
2021/05/14 09:10:30;;;;;;;0.83;0.50;;;19.00;99.90;;;;;;5037867;28;20451;-74
2021/05/14 09:12:57;;;;;;;0.70;0.47;;;18.60;99.90;;;;;;5021649;28;20421;-74
2021/05/14 09:15:36;;;;;;;0.60;0.50;;;18.10;99.90;;;;;;5011165;28;20451;-71
2021/05/14 09:18:02;;;;;;;6.83;0.80;;;17.60;99.90;;;;;;5021616;28;20507;-73
2021/05/14 09:20:30;;;;;;;0.67;0.40;;;17.20;99.90;;;;;;5029587;28;20795;-73
2021/05/14 09:22:55;;;;;;;0.60;0.40;;;17.00;99.90;;;;;;5021707;28;20425;-73
2021/05/14 09:25:21;;;;;;;1.53;0.40;;;16.70;99.90;;;;;;5027884;28;20475;-74
2021/05/14 09:27:46;;;;;;;4.63;0.50;;;16.60;99.90;;;;;;5021130;28;20333;-72
2021/05/14 09:30:12;;;;;;;1.80;0.47;;;16.50;99.90;;;;;;5029089;28;20185;-71
2021/05/14 09:32:38;;;;;;;2.77;1.30;;;16.50;99.90;;;;;;5013008;28;20276;-74
2021/05/14 09:35:06;;;;;;;0.70;0.50;;;16.40;99.90;;;;;;5012386;28;20569;-74
2021/05/14 09:37:31;;;;;;;0.97;0.40;;;16.50;99.90;;;;;;5031660;28;20214;-74
2021/05/14 09:40:21;;;;;;;0.50;0.43;;;16.40;99.90;;;;;;5036995;28;21038;-74
2021/05/14 09:42:51;;;;;;;0.40;0.40;;;16.50;99.90;;;;;;5028260;28;20336;-73
2021/05/14 09:45:25;;;;;;;0.60;0.50;;;16.70;99.90;;;;;;5033990;28;20447;-74
2021/05/14 09:47:59;;;;;;;1.03;0.50;;;16.90;99.90;;;;;;5032498;28;20429;-75
2021/05/14 09:50:32;;;;;;;0.90;0.50;;;17.10;99.90;;;;;;5011406;28;20525;-74
2021/05/14 09:53:13;;;;;;;1.80;0.50;;;17.30;99.90;;;;;;4993741;28;20516;-74
2021/05/14 09:55:44;;;;;;;0.50;0.40;;;17.50;99.90;;;;;;5012318;28;20830;-74
2021/05/14 09:58:18;;;;;;;0.60;0.50;;;17.80;99.90;;;;;;5021834;28;20526;-74
2021/05/14 10:00:43;;;;;;;1.50;0.40;;;18.80;99.90;;;;;;5032422;28;20404;-75
2021/05/14 10:03:11;;;;;;;1.60;0.40;;;20.10;99.90;;;;;;5025720;28;20428;-75
2021/05/14 10:05:38;;;;;;;1.70;0.33;;;21.60;99.90;;;;;;5015129;28;20683;-75
2021/05/14 10:08:05;;;;;;;0.50;0.40;;;22.20;99.90;;;;;;4998745;28;20508;-75
2021/05/14 10:10:34;;;;;;;1.10;0.40;;;23.00;99.90;;;;;;4997900;28;20426;-74
2021/05/14 10:13:00;;;;;;;0.50;0.40;;;22.60;99.90;;;;;;5025142;28;20440;-74
2021/05/14 10:15:26;;;;;;;0.50;0.40;;;22.10;99.90;;;;;;5033632;28;20485;-73
2021/05/14 10:17:53;;;;;;;0.50;0.40;;;21.30;99.90;;;;;;5018839;28;20484;-74
2021/05/14 10:20:27;;;;;;;1.03;0.40;;;20.60;99.90;;;;;;5012671;28;20496;-75
2021/05/14 10:22:54;;;;;;;0.80;0.50;;;20.00;99.90;;;;;;5014566;28;20456;-75
2021/05/14 10:25:39;;;;;;;0.43;0.40;;;19.20;99.90;;;;;;4996765;28;20476;-75
2021/05/14 10:28:06;;;;;;;5.13;0.60;;;18.70;99.90;;;;;;4997231;28;20417;-75
2021/05/14 10:30:31;;;;;;;0.50;0.37;;;18.30;99.90;;;;;;5028181;28;20428;-74
2021/05/14 10:32:58;;;;;;;0.80;0.40;;;17.90;99.90;;;;;;5033142;28;20856;-75
2021/05/14 10:35:29;;;;;;;0.77;0.40;;;17.70;99.90;;;;;;5025509;28;20278;-75
2021/05/14 10:37:57;;;;;;;0.97;0.50;;;17.50;99.90;;;;;;5034398;28;20460;-75
2021/05/14 10:40:38;;;;;;;0.87;0.50;;;17.30;99.90;;;;;;5022708;28;20461;-73
2021/05/14 10:43:05;;;;;;;0.70;0.40;;;17.20;99.90;;;;;;5033858;28;20428;-75
2021/05/14 10:45:36;;;;;;;0.60;0.60;;;17.00;99.90;;;;;;5009533;28;20970;-75
2021/05/14 10:48:03;;;;;;;1.37;0.50;;;17.00;99.90;;;;;;5014380;28;20421;-75
2021/05/14 10:50:42;;;;;;;0.80;0.60;;;17.20;99.90;;;;;;4996835;28;20478;-75
2021/05/14 10:53:17;;;;;;;0.43;0.40;;;17.20;99.90;;;;;;5016463;28;20430;-74
2021/05/14 10:55:47;;;;;;;1.47;0.50;;;17.20;99.90;;;;;;5026067;28;20460;-74
2021/05/14 10:58:37;;;;;;;0.60;0.50;;;16.90;99.90;;;;;;5023032;28;20461;-74
2021/05/14 11:01:03;;;;;;;0.60;0.40;;;16.40;99.90;;;;;;5004488;28;20467;-75
2021/05/14 11:03:32;;;;;;;1.87;0.60;;;15.90;99.90;;;;;;5030509;28;20424;-74
2021/05/14 11:06:17;;;;;;;0.40;0.40;;;15.50;99.90;;;;;;5032291;28;20691;-74
2021/05/14 11:09:01;;;;;;;2.03;0.60;;;15.10;99.90;;;;;;5033469;28;20431;-76
2021/05/14 11:11:26;;;;;;;1.77;0.70;;;14.80;99.90;;;;;;5021616;28;20425;-75
2021/05/14 11:13:52;;;;;;;0.60;0.50;;;14.30;99.90;;;;;;5012978;28;20452;-74
2021/05/14 11:16:41;;;;;;;0.60;0.60;;;13.90;99.90;;;;;;5024020;28;20206;-74
2021/05/14 11:19:13;;;;;;;1.80;0.50;;;13.60;99.90;;;;;;5033650;28;20198;-74
2021/05/14 11:22:01;;;;;;;5.90;0.70;;;13.30;99.90;;;;;;5006412;28;20990;-74
2021/05/14 11:24:28;;;;;;;1.20;0.67;;;13.10;99.90;;;;;;5027463;28;20445;-73
2021/05/14 11:27:15;;;;;;;0.50;0.50;;;13.20;99.90;;;;;;5033562;28;20934;-74
2021/05/14 11:29:46;;;;;;;2.30;0.60;;;13.30;99.90;;;;;;5031609;28;20436;-74
2021/05/14 11:32:28;;;;;;;0.60;0.50;;;13.60;99.90;;;;;;5031965;28;20479;-74
2021/05/14 11:34:57;;;;;;;1.10;0.50;;;13.70;99.90;;;;;;4998139;28;20465;-74
2021/05/14 11:37:25;;;;;;;1.83;0.60;;;14.20;99.90;;;;;;4996964;28;20547;-74
2021/05/14 11:39:51;;;;;;;4.63;1.53;;;14.70;99.90;;;;;;5013628;28;20770;-75
2021/05/14 11:42:22;;;;;;;0.63;0.60;;;15.30;99.90;;;;;;5021995;28;20437;-74
2021/05/14 11:45:03;;;;;;;0.63;0.63;;;15.90;99.90;;;;;;5027762;28;20194;-74
2021/05/14 11:47:29;;;;;;;2.63;0.60;;;16.70;99.90;;;;;;5014517;28;20429;-75
2021/05/14 11:49:56;;;;;;;1.10;0.63;;;17.20;99.90;;;;;;5032560;28;20428;-75
2021/05/14 11:52:42;;;;;;;2.10;0.57;;;17.80;99.90;;;;;;5033169;28;20405;-75
2021/05/14 11:55:11;;;;;;;0.80;0.60;;;18.10;99.90;;;;;;5033002;28;20945;-74
2021/05/14 11:57:38;;;;;;;0.90;0.40;;;18.40;99.90;;;;;;5017912;28;20460;-74
2021/05/14 12:00:09;;;;;;;1.03;0.40;;;18.80;99.90;;;;;;5017049;28;20421;-75
2021/05/14 12:02:40;;;;;;;1.13;0.50;;;18.60;99.90;;;;;;5032414;28;20421;-72
2021/05/14 12:05:08;;;;;;;0.70;0.43;;;18.50;99.90;;;;;;5032291;28;20440;-74
2021/05/14 12:07:33;;;;;;;0.67;0.50;;;18.50;99.90;;;;;;5032788;28;20483;-75
2021/05/14 12:10:01;;;;;;;0.63;0.50;;;18.80;99.90;;;;;;5014939;28;20420;-75
2021/05/14 12:12:27;;;;;;;0.50;0.50;;;18.80;99.90;;;;;;5032748;28;20208;-75
2021/05/14 12:15:14;;;;;;;1.23;0.73;;;18.80;99.90;;;;;;5032390;28;20428;-74
2021/05/14 12:17:41;;;;;;;0.80;0.40;;;18.90;99.90;;;;;;5032497;28;20456;-74
2021/05/14 12:20:23;;;;;;;0.83;0.40;;;18.70;99.90;;;;;;5032644;28;20405;-73
2021/05/14 12:22:49;;;;;;;4.57;0.80;;;18.80;99.90;;;;;;5032457;28;20415;-73
2021/05/14 12:25:15;;;;;;;0.80;0.60;;;18.70;99.90;;;;;;5032147;28;20428;-73
2021/05/14 12:27:42;;;;;;;4.77;0.70;;;18.80;99.90;;;;;;5014608;28;20448;-75
2021/05/14 12:30:10;;;;;;;0.50;0.50;;;18.70;99.90;;;;;;5032550;28;20182;-75
2021/05/14 12:32:37;;;;;;;3.90;0.50;;;18.80;99.90;;;;;;5032163;28;21061;-74
2021/05/14 12:35:04;;;;;;;1.20;0.63;;;18.50;99.90;;;;;;5014440;28;20838;-75
2021/05/14 12:37:30;;;;;;;0.57;0.50;;;18.20;99.90;;;;;;5032166;28;20469;-74
2021/05/14 12:39:56;;;;;;;0.50;0.40;;;18.20;99.90;;;;;;5032315;28;20435;-74
2021/05/14 12:42:29;;;;;;;1.40;0.60;;;18.40;99.90;;;;;;5032341;28;20170;-74
2021/05/14 12:44:55;;;;;;;2.03;0.70;;;18.60;99.90;;;;;;5031995;28;20240;-74
2021/05/14 12:47:23;;;;;;;0.97;0.57;;;18.50;99.90;;;;;;5032127;28;20412;-74
2021/05/14 12:49:57;;;;;;;0.70;0.40;;;18.50;99.90;;;;;;5032110;28;20949;-74
2021/05/14 12:52:32;;;;;;;1.80;0.60;;;18.50;99.90;;;;;;5014220;28;20834;-74
2021/05/14 12:54:59;;;;;;;0.70;0.60;;;18.20;99.90;;;;;;5031935;28;20524;-74